Terminal Aerodrome Forecast
Issued by NWS Greer, SC

Home | Current Version | Previous Version | Text Only | Print | Product List | Glossary On
Versions: 1 2 3 4 5 6 7 8 9 10 11 12 13 14 15 16 17
000
FTUS42 KGSP 190639 AAA
TAFAVL
TAF AMD
KAVL 190639Z 1907/2006 35015G25KT P6SM SCT015 BKN100
     FM190900 34021G31KT P6SM BKN025
     FM191700 34017G30KT P6SM FEW030 FEW200
     FM200000 33014G22KT P6SM FEW250
     FM200500 34008KT P6SM SKC=

USA.gov is the U.S. government's official web portal to all federal, state and local government web resources and services.